createdAt,value
2023-01-31T00:03:54.209Z,102181.25
2023-01-31T00:09:00.000Z,102157.94
2023-01-31T00:14:04.604Z,102147.50
2023-01-31T00:19:07.477Z,102144.09
2023-01-31T00:24:13.703Z,102132.97
2023-01-31T00:29:16.583Z,102125.13
2023-01-31T00:34:21.302Z,102107.97
2023-01-31T00:39:25.676Z,102103.25
2023-01-31T00:44:28.556Z,102087.09
2023-01-31T00:49:33.414Z,102082.06
2023-01-31T00:54:37.987Z,102074.25
2023-01-31T00:59:40.855Z,102062.03
2023-01-31T01:04:44.024Z,102046.34
2023-01-31T01:09:49.774Z,102044.44
2023-01-31T01:14:52.658Z,102046.78
2023-01-31T01:19:56.705Z,102051.81
2023-01-31T01:25:00.999Z,102049.34
2023-01-31T01:30:04.380Z,102046.03
2023-01-31T01:35:08.094Z,102047.91
2023-01-31T01:40:13.311Z,102050.84
2023-01-31T01:45:18.839Z,102045.03
2023-01-31T01:50:25.921Z,102037.72
2023-01-31T01:55:34.864Z,102037.88
2023-01-31T02:00:39.823Z,102039.84
2023-01-31T02:05:45.284Z,102038.47
2023-01-31T02:10:52.215Z,102024.91
2023-01-31T02:15:55.312Z,102023.47
2023-01-31T02:21:43.126Z,102002.31
2023-01-31T02:27:12.454Z,101987.09
2023-01-31T02:32:40.818Z,101982.22
2023-01-31T02:37:52.418Z,101975.47
2023-01-31T02:43:02.851Z,101979.94
2023-01-31T02:48:16.544Z,101986.81
2023-01-31T02:53:28.440Z,101986.03
2023-01-31T02:58:35.020Z,101998.22
2023-01-31T03:03:39.424Z,101984.41
2023-01-31T03:08:44.669Z,101993.94
2023-01-31T03:13:56.436Z,101980.09
2023-01-31T03:19:13.594Z,101978.22
2023-01-31T03:24:18.378Z,101974.53
2023-01-31T03:29:22.904Z,101985.69
2023-01-31T03:34:28.188Z,101979.56
2023-01-31T03:39:38.960Z,101966.50
2023-01-31T03:44:52.015Z,101963.91
2023-01-31T03:49:59.226Z,101977.59
2023-01-31T03:55:08.171Z,101967.22
2023-01-31T04:00:15.396Z,101967.31
2023-01-31T04:05:24.003Z,101959.63
2023-01-31T04:10:31.132Z,101952.81
2023-01-31T04:15:34.286Z,101953.78
2023-01-31T04:20:38.516Z,101937.41
2023-01-31T04:25:41.352Z,101927.06
2023-01-31T04:30:44.193Z,101921.97
2023-01-31T04:35:48.409Z,101903.94
2023-01-31T04:40:51.505Z,101917.03
2023-01-31T04:45:54.447Z,101934.38
2023-01-31T04:50:58.704Z,101955.16
2023-01-31T04:56:01.747Z,101962.06
2023-01-31T05:01:04.655Z,101963.00
2023-01-31T05:06:09.602Z,101969.16
2023-01-31T05:11:14.550Z,101976.91
2023-01-31T05:16:17.456Z,101994.25
2023-01-31T05:21:21.873Z,101986.44
2023-01-31T05:26:24.742Z,101976.94
2023-01-31T05:31:27.641Z,101978.69
2023-01-31T05:36:32.317Z,101968.41
2023-01-31T05:41:36.274Z,101964.97
2023-01-31T05:46:39.403Z,101969.22
2023-01-31T05:51:43.882Z,101949.25
2023-01-31T05:56:46.708Z,101944.06
2023-01-31T06:01:49.550Z,101945.06
2023-01-31T06:06:53.661Z,101946.84
2023-01-31T06:11:56.470Z,101936.56
2023-01-31T06:16:59.361Z,101948.66
2023-01-31T06:22:03.555Z,101940.06
2023-01-31T06:27:06.953Z,101940.00
2023-01-31T06:32:09.702Z,101929.53
2023-01-31T06:37:13.894Z,101912.97
2023-01-31T06:42:16.733Z,101896.44
2023-01-31T06:47:19.879Z,101887.88
2023-01-31T06:52:24.070Z,101888.72
2023-01-31T06:57:26.926Z,101883.47
2023-01-31T07:02:30.220Z,101867.06
2023-01-31T07:07:34.557Z,101838.53
2023-01-31T07:12:37.598Z,101839.25
2023-01-31T07:17:40.569Z,101819.31
2023-01-31T07:22:44.839Z,101809.84
2023-01-31T07:27:47.706Z,101786.38
2023-01-31T07:32:51.243Z,101790.69
2023-01-31T07:37:55.631Z,101768.06
2023-01-31T07:42:59.639Z,101790.56
2023-01-31T07:48:02.687Z,101768.03
2023-01-31T07:53:06.997Z,101771.56
2023-01-31T07:58:09.882Z,101745.59
2023-01-31T08:03:33.943Z,101745.63
2023-01-31T08:08:39.033Z,101738.91
2023-01-31T08:13:41.996Z,101752.81
2023-01-31T08:18:45.383Z,101733.06
2023-01-31T08:23:50.757Z,101742.72
2023-01-31T08:28:54.696Z,101732.31
2023-01-31T08:33:57.834Z,101730.69
2023-01-31T08:39:02.268Z,101731.66
2023-01-31T08:44:07.005Z,101716.13
2023-01-31T08:49:11.552Z,101708.34
2023-01-31T08:54:16.294Z,101706.59
2023-01-31T08:59:19.324Z,101713.53
2023-01-31T09:04:22.237Z,101718.78
2023-01-31T09:09:27.752Z,101733.59
2023-01-31T09:14:32.370Z,101728.41
2023-01-31T09:19:35.244Z,101725.06
2023-01-31T09:24:39.492Z,101728.59
2023-01-31T09:29:42.670Z,101746.81
2023-01-31T09:34:47.041Z,101766.81
2023-01-31T09:39:51.331Z,101779.75
2023-01-31T09:45:00.127Z,101783.22
2023-01-31T09:50:06.323Z,101790.16
2023-01-31T09:55:17.132Z,101779.75
2023-01-31T10:00:25.599Z,101773.69
2023-01-31T10:05:34.520Z,101778.94
2023-01-31T10:10:40.754Z,101772.94
2023-01-31T10:15:45.618Z,101777.28
2023-01-31T10:20:51.718Z,101772.09
2023-01-31T10:26:00.816Z,101800.72
2023-01-31T10:31:07.879Z,101817.19
2023-01-31T10:36:14.633Z,101834.50
2023-01-31T10:41:24.183Z,101833.63
2023-01-31T10:46:27.598Z,101832.75
2023-01-31T10:51:48.680Z,101832.72
2023-01-31T10:56:53.127Z,101832.63
2023-01-31T11:01:56.174Z,101804.91
2023-01-31T11:07:00.120Z,101780.69
2023-01-31T11:12:06.748Z,101759.06
2023-01-31T11:17:15.159Z,101759.94
2023-01-31T11:22:23.358Z,101738.22
2023-01-31T11:27:31.080Z,101732.13
2023-01-31T11:32:36.600Z,101736.50
2023-01-31T11:37:53.775Z,101726.97
2023-01-31T11:42:59.578Z,101731.31
2023-01-31T11:48:08.577Z,101731.31
2023-01-31T11:53:18.465Z,101694.00
2023-01-31T11:58:23.933Z,101695.75
2023-01-31T12:03:27.476Z,101690.56
2023-01-31T12:08:32.836Z,101684.50
2023-01-31T12:13:48.907Z,101667.13
2023-01-31T12:19:01.682Z,101674.06
2023-01-31T12:24:12.433Z,101685.34
2023-01-31T12:29:31.065Z,101680.13
2023-01-31T12:34:59.080Z,101685.34
2023-01-31T12:40:24.679Z,101667.94
2023-01-31T12:45:40.014Z,101683.56
2023-01-31T12:50:46.351Z,101692.25
2023-01-31T12:55:58.320Z,101689.63
2023-01-31T13:01:06.027Z,101684.41
2023-01-31T13:06:15.336Z,101689.69
2023-01-31T13:11:21.714Z,101713.09
2023-01-31T13:16:27.673Z,101703.50
2023-01-31T13:21:33.253Z,101707.81
2023-01-31T13:26:39.164Z,101717.22
2023-01-31T13:31:48.129Z,101731.00
2023-01-31T13:36:53.511Z,101748.53
2023-01-31T13:41:56.514Z,101772.94
2023-01-31T13:47:04.272Z,101779.91
2023-01-31T13:52:12.200Z,101779.91
2023-01-31T13:57:24.243Z,101781.56
2023-01-31T14:02:28.646Z,101789.31
2023-01-31T14:07:31.792Z,101791.03
2023-01-31T14:12:36.307Z,101810.19
2023-01-31T14:18:00.209Z,101794.56
2023-01-31T14:23:30.958Z,101790.22
2023-01-31T14:28:34.090Z,101803.31
2023-01-31T14:33:46.977Z,101805.88
2023-01-31T14:39:29.314Z,101825.88
2023-01-31T14:44:41.226Z,101832.81
2023-01-31T14:50:17.117Z,101838.91
2023-01-31T14:55:37.477Z,101831.97
2023-01-31T15:00:48.672Z,101836.31
2023-01-31T15:05:56.721Z,101848.47
2023-01-31T15:11:03.172Z,101851.94
2023-01-31T15:16:08.333Z,101861.47
2023-01-31T15:21:12.696Z,101864.09
2023-01-31T15:26:18.541Z,101877.09
2023-01-31T15:31:24.857Z,101883.16
2023-01-31T15:36:33.497Z,101891.78
2023-01-31T15:41:40.182Z,101911.69
2023-01-31T15:46:43.711Z,101906.47
2023-01-31T15:51:47.957Z,101916.88
2023-01-31T15:56:50.827Z,101933.28
2023-01-31T16:01:58.323Z,101936.66
2023-01-31T16:07:02.551Z,101932.28
2023-01-31T16:12:06.009Z,101939.13
2023-01-31T16:17:10.097Z,101937.41
2023-01-31T16:22:28.372Z,101933.81
2023-01-31T16:27:34.137Z,101942.47
2023-01-31T16:32:43.310Z,101931.13
2023-01-31T16:37:48.210Z,101928.50
2023-01-31T16:42:51.143Z,101940.53
2023-01-31T16:47:55.274Z,101950.91
2023-01-31T16:53:18.198Z,101949.13
2023-01-31T16:58:45.472Z,101952.63
2023-01-31T17:03:49.107Z,101943.88
2023-01-31T17:08:56.285Z,101947.31
2023-01-31T17:13:59.077Z,101942.97
2023-01-31T17:19:02.003Z,101936.91
2023-01-31T17:24:10.271Z,101939.47
2023-01-31T17:29:13.233Z,101933.41
2023-01-31T17:34:16.999Z,101944.53
2023-01-31T17:39:21.270Z,101960.13
2023-01-31T17:44:24.055Z,101943.63
2023-01-31T17:49:26.971Z,101948.75
2023-01-31T17:54:31.237Z,101959.13
2023-01-31T17:59:34.088Z,101974.69
2023-01-31T18:04:37.029Z,101970.34
2023-01-31T18:09:41.496Z,101964.16
2023-01-31T18:14:44.352Z,101972.03
2023-01-31T18:19:47.375Z,101963.28
2023-01-31T18:24:51.697Z,101975.41
2023-01-31T18:29:55.582Z,101980.66
2023-01-31T18:34:58.400Z,101981.53
2023-01-31T18:40:02.576Z,101993.66
2023-01-31T18:45:05.866Z,101988.44
2023-01-31T18:50:09.869Z,101993.66
2023-01-31T18:55:13.983Z,101989.38
2023-01-31T19:00:17.771Z,101991.91
2023-01-31T19:05:21.701Z,101995.44
2023-01-31T19:10:26.036Z,101988.47
2023-01-31T19:15:28.904Z,101987.50
2023-01-31T19:20:31.734Z,101975.41
2023-01-31T19:25:39.266Z,101970.22
2023-01-31T19:30:42.127Z,101968.47
2023-01-31T19:35:44.988Z,101964.13
2023-01-31T19:40:51.624Z,101964.97
2023-01-31T19:45:54.531Z,101970.19
2023-01-31T19:50:57.633Z,101964.03
2023-01-31T19:56:01.906Z,101949.38
2023-01-31T20:01:06.088Z,101956.34
2023-01-31T20:06:10.792Z,101952.03
2023-01-31T20:11:15.011Z,101951.13
2023-01-31T20:16:18.383Z,101954.66
2023-01-31T20:21:22.043Z,101945.94
2023-01-31T20:26:27.880Z,101945.91
2023-01-31T20:31:30.894Z,101945.97
2023-01-31T20:36:33.891Z,101943.34
2023-01-31T20:41:38.751Z,101927.81
2023-01-31T20:46:44.177Z,101923.47
2023-01-31T20:51:46.944Z,101928.66
2023-01-31T20:56:51.894Z,101918.31
2023-01-31T21:01:54.679Z,101911.47
2023-01-31T21:06:57.504Z,101909.63
2023-01-31T21:12:01.617Z,101913.91
2023-01-31T21:17:04.599Z,101919.97
2023-01-31T21:22:07.403Z,101907.00
2023-01-31T21:27:11.697Z,101906.16
2023-01-31T21:32:14.567Z,101902.69
2023-01-31T21:37:17.353Z,101909.56
2023-01-31T21:42:21.588Z,101911.34
2023-01-31T21:47:24.437Z,101906.13
2023-01-31T21:52:27.315Z,101896.66
2023-01-31T21:57:31.526Z,101880.19
2023-01-31T22:02:34.448Z,101890.47
2023-01-31T22:07:37.303Z,101891.31
2023-01-31T22:12:41.453Z,101892.28
2023-01-31T22:17:44.302Z,101894.00
2023-01-31T22:22:48.627Z,101885.41
2023-01-31T22:27:54.470Z,101874.09
2023-01-31T22:32:57.324Z,101884.50
2023-01-31T22:38:00.129Z,101889.72
2023-01-31T22:43:04.283Z,101875.09
2023-01-31T22:48:07.201Z,101866.41
2023-01-31T22:53:10.849Z,101880.25
2023-01-31T22:58:15.939Z,101864.69
2023-01-31T23:03:18.729Z,101853.53
2023-01-31T23:08:21.509Z,101851.84
2023-01-31T23:13:25.691Z,101847.59
2023-01-31T23:18:28.486Z,101847.59
2023-01-31T23:23:31.312Z,101840.69
2023-01-31T23:28:35.652Z,101818.13
2023-01-31T23:33:38.411Z,101816.38
2023-01-31T23:38:41.185Z,101793.13
2023-01-31T23:43:45.292Z,101813.88
2023-01-31T23:48:48.088Z,101819.94
2023-01-31T23:53:50.941Z,101816.41
2023-01-31T23:58:55.450Z,101807.75
